createdAt,value
2017-12-13T00:01:03.596Z,99.90
2017-12-13T00:06:07.189Z,99.90
2017-12-13T00:11:10.382Z,99.90
2017-12-13T00:16:13.027Z,99.90
2017-12-13T00:21:17.244Z,99.90
2017-12-13T00:26:19.984Z,99.90
2017-12-13T00:31:22.739Z,99.90
2017-12-13T00:36:25.492Z,99.90
2017-12-13T00:41:29.022Z,99.90
2017-12-13T00:46:31.625Z,99.90
2017-12-13T00:51:34.945Z,99.90
2017-12-13T00:56:37.600Z,99.90
2017-12-13T01:01:41.134Z,99.90
2017-12-13T01:06:43.779Z,99.90
2017-12-13T01:11:46.698Z,99.90
2017-12-13T01:16:49.332Z,99.90
2017-12-13T01:21:53.710Z,99.90
2017-12-13T01:26:56.503Z,99.90
2017-12-13T01:31:59.994Z,99.90
2017-12-13T01:37:03.431Z,99.90
2017-12-13T01:42:06.180Z,99.90
2017-12-13T01:47:08.805Z,99.90
2017-12-13T01:52:12.708Z,99.90
2017-12-13T01:57:15.293Z,99.90
2017-12-13T02:02:18.275Z,99.90
2017-12-13T02:07:20.875Z,99.90
2017-12-13T02:12:23.644Z,99.90
2017-12-13T02:17:27.000Z,99.90
2017-12-13T02:22:30.463Z,99.90
2017-12-13T02:27:33.091Z,99.90
2017-12-13T02:32:36.180Z,99.90
2017-12-13T02:37:39.562Z,99.90
2017-12-13T02:42:43.128Z,99.90
2017-12-13T02:47:46.524Z,99.90
2017-12-13T02:52:50.207Z,99.90
2017-12-13T02:57:52.843Z,99.90
2017-12-13T03:02:56.273Z,99.90
2017-12-13T03:07:59.664Z,99.90
2017-12-13T03:13:02.414Z,99.90
2017-12-13T03:18:05.044Z,99.90
2017-12-13T03:23:07.840Z,99.90
2017-12-13T03:28:10.454Z,99.90
2017-12-13T03:33:13.135Z,99.90
2017-12-13T03:38:15.776Z,99.90
2017-12-13T03:43:19.193Z,99.90
2017-12-13T03:48:22.578Z,99.90
2017-12-13T03:53:25.641Z,99.90
2017-12-13T03:58:29.033Z,99.90
2017-12-13T04:03:32.876Z,99.90
2017-12-13T04:08:36.250Z,99.90
2017-12-13T04:13:38.937Z,99.90
2017-12-13T04:18:41.577Z,99.90
2017-12-13T04:23:44.746Z,99.90
2017-12-13T04:28:47.355Z,99.90
2017-12-13T04:33:50.145Z,99.90
2017-12-13T04:38:52.745Z,99.90
2017-12-13T04:43:56.339Z,99.90
2017-12-13T04:48:58.955Z,99.90
2017-12-13T04:54:02.009Z,99.90
2017-12-13T04:59:04.629Z,99.90
2017-12-13T05:04:08.754Z,99.90
2017-12-13T05:09:12.146Z,99.90
2017-12-13T05:14:14.919Z,99.90
2017-12-13T05:19:17.507Z,99.90
2017-12-13T05:24:20.265Z,99.90
2017-12-13T05:29:24.391Z,99.90
2017-12-13T05:34:27.468Z,99.90
2017-12-13T05:39:30.060Z,99.90
2017-12-13T05:44:33.632Z,99.90
2017-12-13T05:49:36.251Z,99.90
2017-12-13T05:54:40.603Z,99.90
2017-12-13T05:59:43.210Z,99.90
2017-12-13T06:04:46.668Z,99.90
2017-12-13T06:09:49.289Z,99.90
2017-12-13T06:14:53.652Z,99.90
2017-12-13T06:19:56.266Z,99.90
2017-12-13T06:24:59.740Z,99.90
2017-12-13T06:30:02.339Z,99.90
2017-12-13T06:35:05.816Z,99.90
2017-12-13T06:40:08.404Z,99.90
2017-12-13T06:45:11.768Z,99.90
2017-12-13T06:50:15.152Z,99.90
2017-12-13T06:55:18.009Z,99.90
2017-12-13T07:00:21.400Z,99.90
2017-12-13T07:05:24.048Z,99.90
2017-12-13T07:10:26.653Z,99.90
2017-12-13T07:15:29.928Z,99.90
2017-12-13T07:20:33.310Z,99.90
2017-12-13T07:25:36.532Z,99.90
2017-12-13T07:30:39.268Z,99.90
2017-12-13T07:35:43.237Z,99.90
2017-12-13T07:40:45.801Z,99.90
2017-12-13T07:45:48.901Z,99.90
2017-12-13T07:50:52.282Z,99.90
2017-12-13T07:55:55.847Z,99.90
2017-12-13T08:00:58.458Z,99.90
2017-12-13T08:06:01.098Z,99.90
2017-12-13T08:11:03.798Z,99.90
2017-12-13T08:16:06.857Z,99.90
2017-12-13T08:21:09.510Z,99.90
2017-12-13T08:26:12.379Z,99.90
2017-12-13T08:31:14.991Z,99.90
2017-12-13T08:36:18.486Z,99.90
2017-12-13T08:41:21.116Z,99.90
2017-12-13T08:46:24.568Z,99.90
2017-12-13T08:51:27.964Z,99.90
2017-12-13T08:56:32.142Z,99.90
2017-12-13T09:01:36.117Z,99.90
2017-12-13T09:06:39.375Z,99.90
2017-12-13T09:11:44.323Z,97.50
2017-12-13T09:16:51.669Z,96.50
2017-12-13T09:21:57.734Z,96.50
2017-12-13T09:27:04.493Z,94.90
2017-12-13T09:32:10.286Z,94.90
2017-12-13T09:37:17.185Z,94.90
2017-12-13T09:42:21.191Z,94.20
2017-12-13T09:47:26.482Z,94.30
2017-12-13T09:52:31.372Z,94.20
2017-12-13T09:57:36.405Z,92.90
2017-12-13T10:02:40.334Z,92.90
2017-12-13T10:07:44.250Z,93.20
2017-12-13T10:12:48.694Z,91.30
2017-12-13T10:17:54.508Z,89.60
2017-12-13T10:22:58.948Z,89.50
2017-12-13T10:28:03.645Z,86.60
2017-12-13T10:33:08.012Z,85.70
2017-12-13T10:38:12.910Z,84.20
2017-12-13T10:43:17.378Z,86.10
2017-12-13T10:48:21.747Z,84.90
2017-12-13T10:53:26.426Z,85.20
2017-12-13T10:58:31.599Z,84.40
2017-12-13T11:03:35.663Z,89.70
2017-12-13T11:08:39.077Z,89.60
2017-12-13T11:13:45.356Z,89.20
2017-12-13T11:18:49.227Z,89.20
2017-12-13T11:23:53.362Z,90.40
2017-12-13T11:28:58.178Z,88.60
2017-12-13T11:34:02.511Z,88.60
2017-12-13T11:39:07.593Z,88.30
2017-12-13T11:44:12.911Z,85.10
2017-12-13T11:49:18.677Z,85.10
2017-12-13T11:54:23.513Z,83.20
2017-12-13T11:59:28.309Z,84.90
2017-12-13T12:04:32.932Z,84.50
2017-12-13T12:09:37.309Z,82.60
2017-12-13T12:14:42.242Z,76.00
2017-12-13T12:19:47.765Z,75.00
2017-12-13T12:24:52.965Z,75.90
2017-12-13T12:29:57.674Z,72.80
2017-12-13T12:35:03.041Z,69.40
2017-12-13T12:40:06.714Z,69.10
2017-12-13T12:45:11.127Z,70.70
2017-12-13T12:50:15.553Z,71.70
2017-12-13T12:55:18.385Z,72.00
2017-12-13T13:00:21.510Z,72.30
2017-12-13T13:05:25.624Z,71.20
2017-12-13T13:10:31.919Z,74.30
2017-12-13T13:15:37.316Z,76.40
2017-12-13T13:20:42.396Z,76.30
2017-12-13T13:25:47.335Z,79.20
2017-12-13T13:30:52.495Z,82.20
2017-12-13T13:35:57.557Z,84.70
2017-12-13T13:41:02.096Z,85.20
2017-12-13T13:46:06.935Z,87.30
2017-12-13T13:51:11.813Z,88.10
2017-12-13T13:56:16.628Z,90.70
2017-12-13T14:01:21.788Z,90.90
2017-12-13T14:06:26.728Z,92.80
2017-12-13T14:11:31.248Z,92.80
2017-12-13T14:16:36.240Z,93.40
2017-12-13T14:21:42.103Z,93.90
2017-12-13T14:26:47.337Z,94.80
2017-12-13T14:31:50.446Z,94.70
2017-12-13T14:36:53.409Z,95.60
2017-12-13T14:41:56.972Z,96.40
2017-12-13T14:47:00.389Z,97.00
2017-12-13T14:52:03.720Z,97.30
2017-12-13T14:57:06.505Z,97.70
2017-12-13T15:02:10.646Z,98.00
2017-12-13T15:07:14.944Z,98.10
2017-12-13T15:12:19.524Z,98.30
2017-12-13T15:17:22.580Z,98.30
2017-12-13T15:22:26.090Z,98.50
2017-12-13T15:27:28.852Z,98.40
2017-12-13T15:32:32.352Z,98.60
2017-12-13T15:37:34.944Z,98.60
2017-12-13T15:42:39.835Z,98.60
2017-12-13T15:47:42.458Z,98.60
2017-12-13T15:52:45.965Z,98.60
2017-12-13T15:57:48.592Z,98.50
2017-12-13T16:02:52.063Z,98.50
2017-12-13T16:07:54.657Z,98.60
2017-12-13T16:12:57.405Z,98.50
2017-12-13T16:18:00.023Z,98.30
2017-12-13T16:23:04.874Z,98.30
2017-12-13T16:28:07.488Z,98.20
2017-12-13T16:33:11.314Z,98.00
2017-12-13T16:38:14.695Z,98.10
2017-12-13T16:43:17.946Z,98.10
2017-12-13T16:48:21.377Z,98.00
2017-12-13T16:53:24.328Z,98.00
2017-12-13T16:58:26.955Z,98.10
2017-12-13T17:03:31.985Z,97.80
2017-12-13T17:08:34.595Z,97.80
2017-12-13T17:13:37.844Z,97.90
2017-12-13T17:18:41.223Z,97.60
2017-12-13T17:23:44.882Z,97.60
2017-12-13T17:28:48.253Z,97.30
2017-12-13T17:33:50.913Z,97.30
2017-12-13T17:38:53.537Z,97.10
2017-12-13T17:43:57.669Z,96.80
2017-12-13T17:49:00.239Z,96.10
2017-12-13T17:54:03.016Z,96.00
2017-12-13T17:59:06.400Z,95.40
2017-12-13T18:04:09.257Z,95.30
2017-12-13T18:09:11.845Z,94.70
2017-12-13T18:14:16.081Z,94.40
2017-12-13T18:19:19.460Z,94.10
2017-12-13T18:24:22.330Z,94.10
2017-12-13T18:29:24.947Z,93.70
2017-12-13T18:34:28.404Z,93.60
2017-12-13T18:39:31.082Z,93.20
2017-12-13T18:44:34.524Z,92.60
2017-12-13T18:49:37.890Z,91.80
2017-12-13T18:54:41.240Z,91.50
2017-12-13T18:59:45.405Z,91.30
2017-12-13T19:04:49.138Z,91.50
2017-12-13T19:09:51.722Z,91.50
2017-12-13T19:14:55.352Z,91.80
2017-12-13T19:19:58.879Z,92.10
2017-12-13T19:25:02.379Z,92.10
2017-12-13T19:30:05.829Z,92.30
2017-12-13T19:35:09.533Z,92.20
2017-12-13T19:40:12.927Z,92.30
2017-12-13T19:45:15.674Z,92.30
2017-12-13T19:50:18.332Z,91.80
2017-12-13T19:55:22.011Z,92.30
2017-12-13T20:00:24.623Z,92.30
2017-12-13T20:05:27.685Z,92.80
2017-12-13T20:10:30.393Z,94.10
2017-12-13T20:15:33.098Z,94.60
2017-12-13T20:20:35.936Z,93.90
2017-12-13T20:25:39.104Z,93.20
2017-12-13T20:30:41.911Z,92.70
2017-12-13T20:35:45.014Z,91.70
2017-12-13T20:40:47.646Z,91.10
2017-12-13T20:45:51.241Z,91.10
2017-12-13T20:50:53.901Z,91.30
2017-12-13T20:55:56.558Z,91.80
2017-12-13T21:00:59.332Z,92.70
2017-12-13T21:06:02.825Z,95.40
2017-12-13T21:11:05.568Z,96.60
2017-12-13T21:16:08.504Z,97.70
2017-12-13T21:21:11.982Z,99.90
2017-12-13T21:26:14.888Z,99.90
2017-12-13T21:31:17.625Z,99.90
2017-12-13T21:36:20.693Z,99.90
2017-12-13T21:41:23.495Z,99.90
2017-12-13T21:46:27.041Z,99.90
2017-12-13T21:51:29.787Z,99.90
2017-12-13T21:56:34.424Z,99.90
2017-12-13T22:01:37.370Z,99.90
2017-12-13T22:06:40.907Z,99.90
2017-12-13T22:11:43.586Z,99.90
2017-12-13T22:16:46.823Z,99.90
2017-12-13T22:21:50.215Z,99.90
2017-12-13T22:26:53.313Z,99.90
2017-12-13T22:31:56.857Z,99.90
2017-12-13T22:37:00.046Z,99.90
2017-12-13T22:42:03.582Z,99.90
2017-12-13T22:47:07.100Z,99.90
2017-12-13T22:52:09.740Z,99.90
2017-12-13T22:57:13.150Z,99.90
2017-12-13T23:02:15.844Z,99.90
2017-12-13T23:07:19.314Z,99.90
2017-12-13T23:12:22.778Z,99.90
2017-12-13T23:17:26.619Z,99.90
2017-12-13T23:22:29.277Z,99.90
2017-12-13T23:27:32.483Z,99.90
2017-12-13T23:32:35.910Z,99.90
2017-12-13T23:37:39.833Z,99.90
2017-12-13T23:42:43.464Z,99.90
2017-12-13T23:47:46.807Z,99.90
2017-12-13T23:52:49.461Z,99.90
2017-12-13T23:57:53.417Z,99.90
